sensor_id;sensor_type;location;lat;lon;timestamp;pressure;altitude;pressure_sealevel;temperature;humidity
7614;BME280;3848;42.016;23.098;2022-12-10T00:00:06;96584.28;;;14.17;100.00
7614;BME280;3848;42.016;23.098;2022-12-10T00:02:33;96580.13;;;14.13;100.00
7614;BME280;3848;42.016;23.098;2022-12-10T00:05:01;96576.69;;;14.14;100.00
7614;BME280;3848;42.016;23.098;2022-12-10T00:07:28;96585.13;;;14.17;100.00
7614;BME280;3848;42.016;23.098;2022-12-10T00:09:55;96563.81;;;14.18;100.00
7614;BME280;3848;42.016;23.098;2022-12-10T00:12:22;96578.19;;;14.21;100.00
7614;BME280;3848;42.016;23.098;2022-12-10T00:14:48;96573.94;;;14.21;100.00
7614;BME280;3848;42.016;23.098;2022-12-10T00:17:15;96564.50;;;14.23;100.00
7614;BME280;3848;42.016;23.098;2022-12-10T00:19:42;96565.22;;;14.27;100.00
7614;BME280;3848;42.016;23.098;2022-12-10T00:22:10;96550.00;;;14.24;100.00
7614;BME280;3848;42.016;23.098;2022-12-10T00:24:37;96553.38;;;14.24;100.00
7614;BME280;3848;42.016;23.098;2022-12-10T00:27:04;96561.94;;;14.23;100.00
7614;BME280;3848;42.016;23.098;2022-12-10T00:29:30;96555.06;;;14.25;100.00
7614;BME280;3848;42.016;23.098;2022-12-10T00:31:57;96529.69;;;14.19;100.00
7614;BME280;3848;42.016;23.098;2022-12-10T00:34:24;96537.94;;;14.27;100.00
7614;BME280;3848;42.016;23.098;2022-12-10T00:36:51;96545.66;;;14.26;100.00
7614;BME280;3848;42.016;23.098;2022-12-10T00:39:20;96557.59;;;14.25;100.00
7614;BME280;3848;42.016;23.098;2022-12-10T00:41:47;96549.88;;;14.27;100.00
7614;BME280;3848;42.016;23.098;2022-12-10T00:44:15;96538.84;;;14.26;100.00
7614;BME280;3848;42.016;23.098;2022-12-10T00:46:42;96533.88;;;14.22;100.00
7614;BME280;3848;42.016;23.098;2022-12-10T00:49:10;96545.63;;;14.27;100.00
7614;BME280;3848;42.016;23.098;2022-12-10T00:51:37;96555.78;;;14.29;100.00
7614;BME280;3848;42.016;23.098;2022-12-10T00:54:04;96560.84;;;14.30;100.00
7614;BME280;3848;42.016;23.098;2022-12-10T00:56:32;96566.00;;;14.29;100.00
7614;BME280;3848;42.016;23.098;2022-12-10T00:59:00;96576.22;;;14.29;100.00
7614;BME280;3848;42.016;23.098;2022-12-10T01:01:29;96570.22;;;14.30;100.00
7614;BME280;3848;42.016;23.098;2022-12-10T01:03:58;96568.66;;;14.26;100.00
7614;BME280;3848;42.016;23.098;2022-12-10T01:06:26;96566.88;;;14.28;100.00
7614;BME280;3848;42.016;23.098;2022-12-10T01:08:55;96562.72;;;14.25;100.00
7614;BME280;3848;42.016;23.098;2022-12-10T01:11:25;96563.56;;;14.26;100.00
7614;BME280;3848;42.016;23.098;2022-12-10T01:13:53;96559.22;;;14.28;100.00
7614;BME280;3848;42.016;23.098;2022-12-10T01:16:21;96554.13;;;14.28;100.00
7614;BME280;3848;42.016;23.098;2022-12-10T01:18:48;96560.94;;;14.27;100.00
7614;BME280;3848;42.016;23.098;2022-12-10T01:21:17;96567.78;;;14.27;100.00
7614;BME280;3848;42.016;23.098;2022-12-10T01:23:46;96556.66;;;14.28;100.00
7614;BME280;3848;42.016;23.098;2022-12-10T01:26:15;96560.09;;;14.27;100.00
7614;BME280;3848;42.016;23.098;2022-12-10T01:28:43;96552.44;;;14.27;100.00
7614;BME280;3848;42.016;23.098;2022-12-10T01:31:13;96550.72;;;14.27;100.00
7614;BME280;3848;42.016;23.098;2022-12-10T01:33:40;96552.59;;;14.22;100.00
7614;BME280;3848;42.016;23.098;2022-12-10T01:36:10;96551.88;;;14.19;100.00
7614;BME280;3848;42.016;23.098;2022-12-10T01:38:37;96534.31;;;14.08;100.00
7614;BME280;3848;42.016;23.098;2022-12-10T01:41:05;96547.72;;;14.15;100.00
7614;BME280;3848;42.016;23.098;2022-12-10T01:43:48;96551.94;;;14.16;100.00
7614;BME280;3848;42.016;23.098;2022-12-10T01:46:17;96552.81;;;14.16;100.00
7614;BME280;3848;42.016;23.098;2022-12-10T01:48:43;96548.59;;;14.14;100.00
7614;BME280;3848;42.016;23.098;2022-12-10T01:51:10;96565.69;;;14.12;100.00
7614;BME280;3848;42.016;23.098;2022-12-10T01:53:38;96563.94;;;14.14;100.00
7614;BME280;3848;42.016;23.098;2022-12-10T01:56:05;96558.81;;;14.14;100.00
7614;BME280;3848;42.016;23.098;2022-12-10T01:58:32;96554.59;;;14.13;100.00
7614;BME280;3848;42.016;23.098;2022-12-10T02:01:05;96552.97;;;14.10;100.00
7614;BME280;3848;42.016;23.098;2022-12-10T02:03:40;96561.47;;;14.11;100.00
7614;BME280;3848;42.016;23.098;2022-12-10T02:06:20;96563.28;;;14.07;100.00
7614;BME280;3848;42.016;23.098;2022-12-10T02:08:59;96548.91;;;14.04;100.00
7614;BME280;3848;42.016;23.098;2022-12-10T02:11:29;96545.56;;;14.02;100.00
7614;BME280;3848;42.016;23.098;2022-12-10T02:14:02;96531.47;;;13.89;100.00
7614;BME280;3848;42.016;23.098;2022-12-10T02:16:34;96557.66;;;13.97;100.00
7614;BME280;3848;42.016;23.098;2022-12-10T02:19:09;96549.31;;;13.91;100.00
7614;BME280;3848;42.016;23.098;2022-12-10T02:21:40;96544.25;;;13.89;100.00
7614;BME280;3848;42.016;23.098;2022-12-10T02:24:10;96540.81;;;13.90;100.00
7614;BME280;3848;42.016;23.098;2022-12-10T02:26:43;96540.88;;;13.89;100.00
7614;BME280;3848;42.016;23.098;2022-12-10T02:29:15;96539.09;;;13.91;100.00
7614;BME280;3848;42.016;23.098;2022-12-10T02:31:46;96537.44;;;13.90;100.00
7614;BME280;3848;42.016;23.098;2022-12-10T02:34:15;96533.16;;;13.90;100.00
7614;BME280;3848;42.016;23.098;2022-12-10T02:36:44;96528.94;;;13.89;100.00
7614;BME280;3848;42.016;23.098;2022-12-10T02:39:15;96524.66;;;13.90;100.00
7614;BME280;3848;42.016;23.098;2022-12-10T02:41:47;96523.88;;;13.88;100.00
7614;BME280;3848;42.016;23.098;2022-12-10T02:44:17;96520.47;;;13.87;100.00
7614;BME280;3848;42.016;23.098;2022-12-10T02:46:47;96529.03;;;13.86;100.00
7614;BME280;3848;42.016;23.098;2022-12-10T02:49:16;96529.88;;;13.87;100.00
7614;BME280;3848;42.016;23.098;2022-12-10T02:51:44;96504.75;;;13.73;100.00
7614;BME280;3848;42.016;23.098;2022-12-10T02:54:33;96518.88;;;13.85;100.00
7614;BME280;3848;42.016;23.098;2022-12-10T02:57:04;96517.25;;;13.82;100.00
7614;BME280;3848;42.016;23.098;2022-12-10T02:59:46;96505.56;;;13.73;100.00
7614;BME280;3848;42.016;23.098;2022-12-10T03:02:18;96512.97;;;13.83;100.00
7614;BME280;3848;42.016;23.098;2022-12-10T03:04:52;96515.66;;;13.78;100.00
7614;BME280;3848;42.016;23.098;2022-12-10T03:07:25;96509.78;;;13.76;100.00
7614;BME280;3848;42.016;23.098;2022-12-10T03:09:58;96492.81;;;13.73;100.00
7614;BME280;3848;42.016;23.098;2022-12-10T03:12:32;96497.84;;;13.77;100.00
7614;BME280;3848;42.016;23.098;2022-12-10T03:15:06;96491.91;;;13.76;100.00
7614;BME280;3848;42.016;23.098;2022-12-10T03:17:35;96493.56;;;13.77;100.00
7614;BME280;3848;42.016;23.098;2022-12-10T03:20:06;96504.72;;;13.75;100.00
7614;BME280;3848;42.016;23.098;2022-12-10T03:22:35;96494.53;;;13.73;100.00
7614;BME280;3848;42.016;23.098;2022-12-10T03:25:05;96497.91;;;13.75;100.00
7614;BME280;3848;42.016;23.098;2022-12-10T03:27:33;96492.03;;;13.71;100.00
7614;BME280;3848;42.016;23.098;2022-12-10T03:30:05;96488.69;;;13.69;100.00
7614;BME280;3848;42.016;23.098;2022-12-10T03:32:32;96489.47;;;13.71;100.00
7614;BME280;3848;42.016;23.098;2022-12-10T03:35:01;96476.84;;;13.67;100.00
7614;BME280;3848;42.016;23.098;2022-12-10T03:37:28;96489.41;;;13.73;100.00
7614;BME280;3848;42.016;23.098;2022-12-10T03:39:56;96473.63;;;13.62;100.00
7614;BME280;3848;42.016;23.098;2022-12-10T03:42:24;96492.84;;;13.72;100.00
7614;BME280;3848;42.016;23.098;2022-12-10T03:44:52;96490.25;;;13.73;100.00
7614;BME280;3848;42.016;23.098;2022-12-10T03:47:20;96486.88;;;13.73;100.00
7614;BME280;3848;42.016;23.098;2022-12-10T03:49:47;96483.34;;;13.77;100.00
7614;BME280;3848;42.016;23.098;2022-12-10T03:52:14;96484.16;;;13.79;100.00
7614;BME280;3848;42.016;23.098;2022-12-10T03:54:41;96480.03;;;13.75;100.00
7614;BME280;3848;42.016;23.098;2022-12-10T03:57:08;96477.41;;;13.77;100.00
7614;BME280;3848;42.016;23.098;2022-12-10T03:59:35;96480.03;;;13.75;100.00
7614;BME280;3848;42.016;23.098;2022-12-10T04:02:02;96481.69;;;13.76;100.00
7614;BME280;3848;42.016;23.098;2022-12-10T04:04:30;96467.28;;;13.73;100.00
7614;BME280;3848;42.016;23.098;2022-12-10T04:06:57;96470.75;;;13.71;100.00
7614;BME280;3848;42.016;23.098;2022-12-10T04:09:23;96473.41;;;13.68;100.00
7614;BME280;3848;42.016;23.098;2022-12-10T04:11:55;96468.59;;;13.59;100.00
7614;BME280;3848;42.016;23.098;2022-12-10T04:14:22;96475.38;;;13.60;100.00
7614;BME280;3848;42.016;23.098;2022-12-10T04:17:06;96472.81;;;13.60;100.00
7614;BME280;3848;42.016;23.098;2022-12-10T04:19:35;96466.75;;;13.64;100.00
7614;BME280;3848;42.016;23.098;2022-12-10T04:22:02;96449.84;;;13.60;100.00
7614;BME280;3848;42.016;23.098;2022-12-10T04:24:47;96458.94;;;13.68;100.00
7614;BME280;3848;42.016;23.098;2022-12-10T04:27:33;96457.31;;;13.66;100.00
7614;BME280;3848;42.016;23.098;2022-12-10T04:30:04;96447.03;;;13.67;100.00
7614;BME280;3848;42.016;23.098;2022-12-10T04:32:31;96431.88;;;13.63;100.00
7614;BME280;3848;42.016;23.098;2022-12-10T04:34:59;96436.94;;;13.64;100.00
7614;BME280;3848;42.016;23.098;2022-12-10T04:37:27;96434.44;;;13.63;100.00
7614;BME280;3848;42.016;23.098;2022-12-10T04:39:54;96419.22;;;13.60;100.00
7614;BME280;3848;42.016;23.098;2022-12-10T04:42:21;96433.59;;;13.62;100.00
7614;BME280;3848;42.016;23.098;2022-12-10T04:44:48;96429.31;;;13.63;100.00
7614;BME280;3848;42.016;23.098;2022-12-10T04:47:15;96412.44;;;13.59;100.00
7614;BME280;3848;42.016;23.098;2022-12-10T04:49:42;96421.81;;;13.58;100.00
7614;BME280;3848;42.016;23.098;2022-12-10T04:52:12;96428.69;;;13.56;100.00
7614;BME280;3848;42.016;23.098;2022-12-10T04:54:39;96432.31;;;13.49;100.00
7614;BME280;3848;42.016;23.098;2022-12-10T04:57:06;96439.13;;;13.49;100.00
7614;BME280;3848;42.016;23.098;2022-12-10T04:59:34;96438.34;;;13.47;100.00
7614;BME280;3848;42.016;23.098;2022-12-10T05:02:01;96434.06;;;13.47;100.00
7614;BME280;3848;42.016;23.098;2022-12-10T05:04:28;96421.34;;;13.46;100.00
7614;BME280;3848;42.016;23.098;2022-12-10T05:06:54;96421.25;;;13.49;100.00
7614;BME280;3848;42.016;23.098;2022-12-10T05:09:23;96429.63;;;13.54;100.00
7614;BME280;3848;42.016;23.098;2022-12-10T05:11:49;96432.97;;;13.56;100.00
7614;BME280;3848;42.016;23.098;2022-12-10T05:14:16;96432.13;;;13.55;100.00
7614;BME280;3848;42.016;23.098;2022-12-10T05:16:43;96437.09;;;13.60;100.00
7614;BME280;3848;42.016;23.098;2022-12-10T05:19:10;96444.75;;;13.60;100.00
7614;BME280;3848;42.016;23.098;2022-12-10T05:21:37;96451.47;;;13.62;100.00
7614;BME280;3848;42.016;23.098;2022-12-10T05:24:23;96457.50;;;13.60;100.00
7614;BME280;3848;42.016;23.098;2022-12-10T05:26:50;96449.81;;;13.61;100.00
7614;BME280;3848;42.016;23.098;2022-12-10T05:29:17;96449.81;;;13.61;100.00
7614;BME280;3848;42.016;23.098;2022-12-10T05:31:44;96463.16;;;13.69;100.00
7614;BME280;3848;42.016;23.098;2022-12-10T05:34:11;96465.75;;;13.68;100.00
7614;BME280;3848;42.016;23.098;2022-12-10T05:36:38;96461.63;;;13.64;100.00
7614;BME280;3848;42.016;23.098;2022-12-10T05:39:05;96478.41;;;13.71;100.00
7614;BME280;3848;42.016;23.098;2022-12-10T05:41:36;96474.97;;;13.72;100.00
7614;BME280;3848;42.016;23.098;2022-12-10T05:44:04;96452.31;;;13.63;100.00
7614;BME280;3848;42.016;23.098;2022-12-10T05:46:33;96457.25;;;13.67;100.00
7614;BME280;3848;42.016;23.098;2022-12-10T05:49:00;96458.97;;;13.67;100.00
7614;BME280;3848;42.016;23.098;2022-12-10T05:51:30;96447.03;;;13.67;100.00
7614;BME280;3848;42.016;23.098;2022-12-10T05:53:59;96456.47;;;13.65;100.00
7614;BME280;3848;42.016;23.098;2022-12-10T05:56:26;96455.69;;;13.63;100.00
7614;BME280;3848;42.016;23.098;2022-12-10T05:58:58;96456.53;;;13.64;100.00
7614;BME280;3848;42.016;23.098;2022-12-10T06:01:26;96454.06;;;13.61;100.00
7614;BME280;3848;42.016;23.098;2022-12-10T06:03:53;96480.38;;;13.63;100.00
7614;BME280;3848;42.016;23.098;2022-12-10T06:06:22;96465.13;;;13.61;100.00
7614;BME280;3848;42.016;23.098;2022-12-10T06:08:50;96468.41;;;13.65;100.00
7614;BME280;3848;42.016;23.098;2022-12-10T06:11:16;96471.78;;;13.65;100.00
7614;BME280;3848;42.016;23.098;2022-12-10T06:13:43;96469.38;;;13.61;100.00
7614;BME280;3848;42.016;23.098;2022-12-10T06:16:13;96464.19;;;13.64;100.00
7614;BME280;3848;42.016;23.098;2022-12-10T06:18:40;96484.47;;;13.68;100.00
7614;BME280;3848;42.016;23.098;2022-12-10T06:21:10;96485.13;;;13.75;100.00
7614;BME280;3848;42.016;23.098;2022-12-10T06:23:38;96486.75;;;13.78;100.00
7614;BME280;3848;42.016;23.098;2022-12-10T06:26:06;96478.25;;;13.77;100.00
7614;BME280;3848;42.016;23.098;2022-12-10T06:28:33;96477.31;;;13.80;100.00
7614;BME280;3848;42.016;23.098;2022-12-10T06:31:00;96475.59;;;13.80;100.00
7614;BME280;3848;42.016;23.098;2022-12-10T06:33:28;96478.88;;;13.84;100.00
7614;BME280;3848;42.016;23.098;2022-12-10T06:35:55;96485.63;;;13.86;100.00
7614;BME280;3848;42.016;23.098;2022-12-10T06:38:22;96477.38;;;13.78;100.00
7614;BME280;3848;42.016;23.098;2022-12-10T06:40:48;96489.06;;;13.85;100.00
7614;BME280;3848;42.016;23.098;2022-12-10T06:43:15;96486.50;;;13.85;100.00
7614;BME280;3848;42.016;23.098;2022-12-10T06:45:42;96473.03;;;13.80;100.00
7614;BME280;3848;42.016;23.098;2022-12-10T06:48:09;96480.59;;;13.83;100.00
7614;BME280;3848;42.016;23.098;2022-12-10T06:50:37;96476.38;;;13.82;100.00
7614;BME280;3848;42.016;23.098;2022-12-10T06:53:04;96468.69;;;13.84;100.00
7614;BME280;3848;42.016;23.098;2022-12-10T06:55:31;96464.59;;;13.78;100.00
7614;BME280;3848;42.016;23.098;2022-12-10T06:57:58;96451.06;;;13.76;100.00
7614;BME280;3848;42.016;23.098;2022-12-10T07:00:25;96452.63;;;13.80;100.00
7614;BME280;3848;42.016;23.098;2022-12-10T07:02:51;96456.88;;;13.80;100.00
7614;BME280;3848;42.016;23.098;2022-12-10T07:05:18;96446.94;;;13.70;100.00
7614;BME280;3848;42.016;23.098;2022-12-10T07:07:46;96458.72;;;13.76;100.00
7614;BME280;3848;42.016;23.098;2022-12-10T07:10:13;96458.72;;;13.76;100.00
7614;BME280;3848;42.016;23.098;2022-12-10T07:12:40;96463.06;;;13.72;100.00
7614;BME280;3848;42.016;23.098;2022-12-10T07:15:08;96455.41;;;13.72;100.00
7614;BME280;3848;42.016;23.098;2022-12-10T07:17:35;96463.16;;;13.69;100.00
7614;BME280;3848;42.016;23.098;2022-12-10T07:20:02;96463.09;;;13.71;100.00
7614;BME280;3848;42.016;23.098;2022-12-10T07:22:28;96459.72;;;13.70;100.00
7614;BME280;3848;42.016;23.098;2022-12-10T07:24:57;96463.16;;;13.69;100.00
7614;BME280;3848;42.016;23.098;2022-12-10T07:27:23;96450.28;;;13.72;100.00
7614;BME280;3848;42.016;23.098;2022-12-10T07:29:50;96451.22;;;13.70;100.00
7614;BME280;3848;42.016;23.098;2022-12-10T07:32:17;96457.91;;;13.74;100.00
7614;BME280;3848;42.016;23.098;2022-12-10T07:34:44;96457.06;;;13.73;100.00
7614;BME280;3848;42.016;23.098;2022-12-10T07:37:10;96458.59;;;13.79;100.00
7614;BME280;3848;42.016;23.098;2022-12-10T07:39:37;96461.91;;;13.83;100.00
7614;BME280;3848;42.016;23.098;2022-12-10T07:42:05;96464.41;;;13.84;100.00
7614;BME280;3848;42.016;23.098;2022-12-10T07:44:32;96449.06;;;13.84;100.00
7614;BME280;3848;42.016;23.098;2022-12-10T07:46:59;96465.19;;;13.86;100.00
7614;BME280;3848;42.016;23.098;2022-12-10T07:49:26;96477.13;;;13.86;100.00
7614;BME280;3848;42.016;23.098;2022-12-10T07:51:52;96477.94;;;13.86;100.00
7614;BME280;3848;42.016;23.098;2022-12-10T07:54:19;96483.75;;;13.91;100.00
7614;BME280;3848;42.016;23.098;2022-12-10T07:56:46;96481.19;;;13.91;100.00
7614;BME280;3848;42.016;23.098;2022-12-10T07:59:14;96482.13;;;13.89;100.00
7614;BME280;3848;42.016;23.098;2022-12-10T08:01:41;96477.78;;;13.91;100.00
7614;BME280;3848;42.016;23.098;2022-12-10T08:04:08;96469.41;;;13.87;100.00
7614;BME280;3848;42.016;23.098;2022-12-10T08:06:34;96464.28;;;13.87;100.00
7614;BME280;3848;42.016;23.098;2022-12-10T08:09:01;96474.41;;;13.90;100.00
7614;BME280;3848;42.016;23.098;2022-12-10T08:11:28;96471.06;;;13.88;100.00
7614;BME280;3848;42.016;23.098;2022-12-10T08:13:55;96469.41;;;13.87;100.00
7614;BME280;3848;42.016;23.098;2022-12-10T08:16:25;96473.56;;;13.90;100.00
7614;BME280;3848;42.016;23.098;2022-12-10T08:18:52;96476.97;;;13.90;100.00
7614;BME280;3848;42.016;23.098;2022-12-10T08:21:21;96493.13;;;13.91;100.00
7614;BME280;3848;42.016;23.098;2022-12-10T08:23:49;96467.09;;;13.80;100.00
7614;BME280;3848;42.016;23.098;2022-12-10T08:26:17;96477.94;;;13.86;100.00
7614;BME280;3848;42.016;23.098;2022-12-10T08:28:45;96481.25;;;13.90;100.00
7614;BME280;3848;42.016;23.098;2022-12-10T08:31:13;96479.53;;;13.90;100.00
7614;BME280;3848;42.016;23.098;2022-12-10T08:33:42;96468.47;;;13.90;100.00
7614;BME280;3848;42.016;23.098;2022-12-10T08:36:12;96465.09;;;13.89;100.00
7614;BME280;3848;42.016;23.098;2022-12-10T08:38:39;96466.59;;;13.95;100.00
7614;BME280;3848;42.016;23.098;2022-12-10T08:41:07;96469.19;;;13.93;100.00
7614;BME280;3848;42.016;23.098;2022-12-10T08:43:34;96458.25;;;13.90;100.00
7614;BME280;3848;42.016;23.098;2022-12-10T08:46:01;96455.47;;;13.97;100.00
7614;BME280;3848;42.016;23.098;2022-12-10T08:48:28;96456.09;;;14.04;100.00
7614;BME280;3848;42.016;23.098;2022-12-10T08:50:57;96459.44;;;14.06;100.00
7614;BME280;3848;42.016;23.098;2022-12-10T08:53:24;96453.59;;;14.02;100.00
7614;BME280;3848;42.016;23.098;2022-12-10T08:55:51;96455.06;;;14.10;100.00
7614;BME280;3848;42.016;23.098;2022-12-10T08:58:18;96447.34;;;14.11;100.00
7614;BME280;3848;42.016;23.098;2022-12-10T09:00:45;96439.56;;;14.14;100.00
7614;BME280;3848;42.016;23.098;2022-12-10T09:03:12;96431.72;;;14.20;100.00
7614;BME280;3848;42.016;23.098;2022-12-10T09:05:39;96441.84;;;14.23;100.00
7614;BME280;3848;42.016;23.098;2022-12-10T09:08:08;96436.63;;;14.26;100.00
7614;BME280;3848;42.016;23.098;2022-12-10T09:10:35;96415.66;;;14.17;100.00
7614;BME280;3848;42.016;23.098;2022-12-10T09:13:02;96439.06;;;14.29;100.00
7614;BME280;3848;42.016;23.098;2022-12-10T09:15:29;96428.78;;;14.31;100.00
7614;BME280;3848;42.016;23.098;2022-12-10T09:17:56;96427.72;;;14.37;100.00
7614;BME280;3848;42.016;23.098;2022-12-10T09:20:23;96424.41;;;14.34;100.00
7614;BME280;3848;42.016;23.098;2022-12-10T09:22:50;96432.66;;;14.43;100.00
7614;BME280;3848;42.016;23.098;2022-12-10T09:25:18;96414.63;;;14.47;100.00
7614;BME280;3848;42.016;23.098;2022-12-10T09:27:46;96401.69;;;14.52;100.00
7614;BME280;3848;42.016;23.098;2022-12-10T09:30:13;96398.13;;;14.56;100.00
7614;BME280;3848;42.016;23.098;2022-12-10T09:32:40;96385.97;;;14.62;100.00
7614;BME280;3848;42.016;23.098;2022-12-10T09:35:07;96353.44;;;14.66;100.00
7614;BME280;3848;42.016;23.098;2022-12-10T09:37:34;96353.84;;;14.79;100.00
7614;BME280;3848;42.016;23.098;2022-12-10T09:40:01;96346.81;;;14.84;100.00
7614;BME280;3848;42.016;23.098;2022-12-10T09:42:38;96340.63;;;14.89;100.00
7614;BME280;3848;42.016;23.098;2022-12-10T09:45:15;96333.44;;;14.99;100.00
7614;BME280;3848;42.016;23.098;2022-12-10T09:47:52;96322.78;;;15.10;100.00
7614;BME280;3848;42.016;23.098;2022-12-10T09:50:27;96331.81;;;15.18;100.00
7614;BME280;3848;42.016;23.098;2022-12-10T09:52:57;96321.31;;;15.26;100.00
7614;BME280;3848;42.016;23.098;2022-12-10T09:55:34;96296.94;;;15.16;100.00
7614;BME280;3848;42.016;23.098;2022-12-10T09:58:04;96315.75;;;15.37;100.00
7614;BME280;3848;42.016;23.098;2022-12-10T10:00:35;96324.97;;;15.41;100.00
7614;BME280;3848;42.016;23.098;2022-12-10T10:03:03;96326.34;;;15.49;100.00
7614;BME280;3848;42.016;23.098;2022-12-10T10:05:35;96313.53;;;15.49;100.00
7614;BME280;3848;42.016;23.098;2022-12-10T10:08:05;96303.63;;;15.42;100.00
7614;BME280;3848;42.016;23.098;2022-12-10T10:10:35;96315.00;;;15.55;100.00
7614;BME280;3848;42.016;23.098;2022-12-10T10:13:15;96313.19;;;15.59;100.00
7614;BME280;3848;42.016;23.098;2022-12-10T10:15:45;96310.72;;;15.55;100.00
7614;BME280;3848;42.016;23.098;2022-12-10T10:18:19;96297.22;;;15.52;100.00
7614;BME280;3848;42.016;23.098;2022-12-10T10:20:50;96303.09;;;15.54;100.00
7614;BME280;3848;42.016;23.098;2022-12-10T10:23:17;96294.44;;;15.56;100.00
7614;BME280;3848;42.016;23.098;2022-12-10T10:25:44;96291.72;;;15.61;100.00
7614;BME280;3848;42.016;23.098;2022-12-10T10:28:16;96289.16;;;15.61;100.00
7614;BME280;3848;42.016;23.098;2022-12-10T10:30:44;96289.91;;;15.65;100.00
7614;BME280;3848;42.016;23.098;2022-12-10T10:33:14;96293.41;;;15.62;100.00
7614;BME280;3848;42.016;23.098;2022-12-10T10:35:44;96282.38;;;15.60;100.00
7614;BME280;3848;42.016;23.098;2022-12-10T10:38:17;96285.84;;;15.59;100.00
7614;BME280;3848;42.016;23.098;2022-12-10T10:40:48;96290.84;;;15.62;100.00
7614;BME280;3848;42.016;23.098;2022-12-10T10:43:20;96289.06;;;15.64;100.00
7614;BME280;3848;42.016;23.098;2022-12-10T10:45:51;96292.53;;;15.63;100.00
7614;BME280;3848;42.016;23.098;2022-12-10T10:48:21;96272.19;;;15.59;100.00
7614;BME280;3848;42.016;23.098;2022-12-10T10:50:50;96264.41;;;15.62;100.00
7614;BME280;3848;42.016;23.098;2022-12-10T10:53:31;96268.69;;;15.61;100.00
7614;BME280;3848;42.016;23.098;2022-12-10T10:56:04;96263.44;;;15.64;100.00
7614;BME280;3848;42.016;23.098;2022-12-10T10:58:34;96232.78;;;15.41;100.00
7614;BME280;3848;42.016;23.098;2022-12-10T11:01:04;96266.09;;;15.63;100.00
7614;BME280;3848;42.016;23.098;2022-12-10T11:03:35;96274.66;;;15.62;100.00
7614;BME280;3848;42.016;23.098;2022-12-10T11:06:06;96265.38;;;15.57;100.00
7614;BME280;3848;42.016;23.098;2022-12-10T11:08:35;96259.44;;;15.57;100.00
7614;BME280;3848;42.016;23.098;2022-12-10T11:11:05;96258.59;;;15.56;100.00
7614;BME280;3848;42.016;23.098;2022-12-10T11:13:35;96250.81;;;15.60;100.00
7614;BME280;3848;42.016;23.098;2022-12-10T11:16:11;96242.34;;;15.57;100.00
7614;BME280;3848;42.016;23.098;2022-12-10T11:18:39;96233.97;;;15.54;100.00
7614;BME280;3848;42.016;23.098;2022-12-10T11:21:16;96224.69;;;15.51;100.00
7614;BME280;3848;42.016;23.098;2022-12-10T11:23:45;96219.69;;;15.48;100.00
7614;BME280;3848;42.016;23.098;2022-12-10T11:26:42;96211.31;;;15.45;100.00
7614;BME280;3848;42.016;23.098;2022-12-10T11:29:29;96206.91;;;15.48;100.00
7614;BME280;3848;42.016;23.098;2022-12-10T11:32:15;96187.50;;;15.43;100.00
7614;BME280;3848;42.016;23.098;2022-12-10T11:34:56;96202.75;;;15.46;100.00
7614;BME280;3848;42.016;23.098;2022-12-10T11:37:29;96195.28;;;15.40;100.00
7614;BME280;3848;42.016;23.098;2022-12-10T11:40:28;96186.72;;;15.41;100.00
7614;BME280;3848;42.016;23.098;2022-12-10T11:43:08;96190.31;;;15.37;100.00
7614;BME280;3848;42.016;23.098;2022-12-10T11:45:46;96181.88;;;15.35;100.00
7614;BME280;3848;42.016;23.098;2022-12-10T11:48:29;96186.22;;;15.33;100.00
7614;BME280;3848;42.016;23.098;2022-12-10T11:51:03;96190.44;;;15.34;100.00
7614;BME280;3848;42.016;23.098;2022-12-10T11:53:47;96198.38;;;15.28;100.00
7614;BME280;3848;42.016;23.098;2022-12-10T11:56:22;96193.28;;;15.28;100.00
7614;BME280;3848;42.016;23.098;2022-12-10T11:58:58;96179.84;;;15.22;100.00
7614;BME280;3848;42.016;23.098;2022-12-10T12:01:39;96168.69;;;15.23;100.00
7614;BME280;3848;42.016;23.098;2022-12-10T12:04:29;96163.53;;;15.25;100.00
7614;BME280;3848;42.016;23.098;2022-12-10T12:07:24;96156.16;;;15.17;100.00
7614;BME280;3848;42.016;23.098;2022-12-10T12:10:25;96162.09;;;15.18;100.00
7614;BME280;3848;42.016;23.098;2022-12-10T12:12:58;96162.75;;;15.23;100.00
7614;BME280;3848;42.016;23.098;2022-12-10T12:15:30;96156.03;;;15.20;100.00
7614;BME280;3848;42.016;23.098;2022-12-10T12:18:02;96153.59;;;15.17;100.00
7614;BME280;3848;42.016;23.098;2022-12-10T12:20:34;96139.91;;;15.18;100.00
7614;BME280;3848;42.016;23.098;2022-12-10T12:23:14;96127.22;;;15.15;100.00
7614;BME280;3848;42.016;23.098;2022-12-10T12:25:46;96127.81;;;15.22;100.00
7614;BME280;3848;42.016;23.098;2022-12-10T12:28:20;96117.69;;;15.19;100.00
7614;BME280;3848;42.016;23.098;2022-12-10T12:30:51;96119.25;;;15.23;100.00
7614;BME280;3848;42.016;23.098;2022-12-10T12:33:29;96112.34;;;15.25;100.00
7614;BME280;3848;42.016;23.098;2022-12-10T12:36:02;96104.91;;;15.19;100.00
7614;BME280;3848;42.016;23.098;2022-12-10T12:38:36;96065.97;;;14.92;100.00
7614;BME280;3848;42.016;23.098;2022-12-10T12:41:17;96108.19;;;15.22;100.00
7614;BME280;3848;42.016;23.098;2022-12-10T12:43:52;96105.56;;;15.24;100.00
7614;BME280;3848;42.016;23.098;2022-12-10T12:46:27;96113.16;;;15.25;100.00
7614;BME280;3848;42.016;23.098;2022-12-10T12:49:01;96109.84;;;15.23;100.00
7614;BME280;3848;42.016;23.098;2022-12-10T12:51:32;96119.19;;;15.24;100.00
7614;BME280;3848;42.016;23.098;2022-12-10T12:54:01;96114.06;;;15.24;100.00
7614;BME280;3848;42.016;23.098;2022-12-10T12:56:38;96099.75;;;15.20;100.00
7614;BME280;3848;42.016;23.098;2022-12-10T12:59:13;96094.94;;;15.13;100.00
7614;BME280;3848;42.016;23.098;2022-12-10T13:01:49;96105.22;;;15.11;100.00
7614;BME280;3848;42.016;23.098;2022-12-10T13:04:19;96100.38;;;15.05;100.00
7614;BME280;3848;42.016;23.098;2022-12-10T13:10:18;96087.78;;;15.01;100.00
7614;BME280;3848;42.016;23.098;2022-12-10T13:12:50;96088.44;;;14.85;100.00
7614;BME280;3848;42.016;23.098;2022-12-10T13:15:19;96084.00;;;14.89;100.00
7614;BME280;3848;42.016;23.098;2022-12-10T13:18:06;96092.72;;;14.85;100.00